DHK052 EGNX-EBBR
Flight info
| Callsign | DHK052 |
|---|---|
| Flight time | N/A |
| Altitude | 29000 |
| Route | SAPCO UY53 DTY UM605 BENSU Q70 VABIK/N0436F230 Q70 KOK |
| Aircraft | B77L/H-SDE1E2E3FGHIJ2J3J4J5M1RWXY/LB1D1 |
Departure
| Time | 2026-05-03 21:29 |
|---|---|
| Airport | East Midlands Airport (EGNX) |
Arrival
| Time | N/A |
|---|---|
| Airport | Brussels Airport (EBBR) |
| Time | Latitude | Longitude | Altitude | Speed | Heading |
|---|---|---|---|---|---|
| 2026-05-03 21:26 | 52.82822 | -1.35090 | 307 ft | 10 kts | 268° |
| 2026-05-03 21:27 | 52.82823 | -1.35213 | 308 ft | 11 kts | 279° |
| 2026-05-03 21:27 | 52.82870 | -1.35251 | 309 ft | 8 kts | 21° |
| 2026-05-03 21:27 | 52.82892 | -1.35172 | 310 ft | 9 kts | 83° |
| 2026-05-03 21:27 | 52.82897 | -1.35065 | 308 ft | 10 kts | 87° |
| 2026-05-03 21:28 | 52.82913 | -1.34957 | 311 ft | 10 kts | 47° |
| 2026-05-03 21:28 | 52.82985 | -1.34938 | 310 ft | 11 kts | 0° |
| 2026-05-03 21:28 | 52.83055 | -1.34889 | 311 ft | 12 kts | 58° |
| 2026-05-03 21:28 | 52.83066 | -1.34742 | 307 ft | 17 kts | 88° |
| 2026-05-03 21:29 | 52.83079 | -1.34059 | 308 ft | 120 kts | 88° |
| 2026-05-03 21:29 | 52.83100 | -1.32130 | 886 ft | 189 kts | 86° |
| 2026-05-03 21:29 | 52.83120 | -1.30089 | 2816 ft | 172 kts | 86° |
| 2026-05-03 21:29 | 52.83131 | -1.28009 | 4379 ft | 193 kts | 92° |
| 2026-05-03 21:30 | 52.83014 | -1.25711 | 5294 ft | 211 kts | 97° |
| 2026-05-03 21:30 | 52.82585 | -1.23238 | 5715 ft | 242 kts | 121° |
| 2026-05-03 21:30 | 52.81444 | -1.20983 | 6269 ft | 266 kts | 137° |
| 2026-05-03 21:30 | 52.80129 | -1.18767 | 7334 ft | 274 kts | 135° |
| 2026-05-03 21:31 | 52.78789 | -1.16459 | 8311 ft | 281 kts | 136° |
| 2026-05-03 21:31 | 52.77216 | -1.14590 | 8879 ft | 279 kts | 163° |
| 2026-05-03 21:31 | 52.75310 | -1.14316 | 8947 ft | 279 kts | 194° |
| 2026-05-03 21:31 | 52.73644 | -1.15847 | 9003 ft | 277 kts | 227° |
| 2026-05-03 21:32 | 52.72412 | -1.18273 | 9684 ft | 278 kts | 227° |
| 2026-05-03 21:32 | 52.71028 | -1.20529 | 10842 ft | 280 kts | 222° |
| 2026-05-03 21:32 | 52.69540 | -1.22628 | 12032 ft | 283 kts | 220° |
| 2026-05-03 21:32 | 52.67997 | -1.24696 | 13161 ft | 288 kts | 219° |
| 2026-05-03 21:33 | 52.66418 | -1.26769 | 14210 ft | 293 kts | 219° |
| 2026-05-03 21:33 | 52.64811 | -1.28862 | 15240 ft | 296 kts | 218° |
| 2026-05-03 21:33 | 52.63205 | -1.30944 | 16276 ft | 300 kts | 218° |
| 2026-05-03 21:33 | 52.61535 | -1.33107 | 17308 ft | 304 kts | 218° |
| 2026-05-03 21:34 | 52.59840 | -1.35200 | 18276 ft | 306 kts | 210° |
| 2026-05-03 21:34 | 52.57805 | -1.36147 | 18953 ft | 316 kts | 182° |
| 2026-05-03 21:34 | 52.53002 | -1.36042 | 20703 ft | 323 kts | 177° |
| 2026-05-03 21:34 | 52.50811 | -1.35088 | 21260 ft | 343 kts | 159° |
| 2026-05-03 21:35 | 52.48590 | -1.33265 | 21450 ft | 371 kts | 154° |
| 2026-05-03 21:35 | 52.46213 | -1.31156 | 21650 ft | 396 kts | 154° |
| 2026-05-03 21:35 | 52.43727 | -1.29080 | 21907 ft | 416 kts | 156° |
| 2026-05-03 21:35 | 52.41069 | -1.27041 | 22507 ft | 427 kts | 158° |
| 2026-05-03 21:36 | 52.38324 | -1.25074 | 23265 ft | 434 kts | 159° |
| 2026-05-03 21:36 | 52.35531 | -1.23156 | 24035 ft | 437 kts | 159° |
| 2026-05-03 21:36 | 52.32707 | -1.21255 | 24831 ft | 439 kts | 160° |
| 2026-05-03 21:36 | 52.29875 | -1.19361 | 25607 ft | 441 kts | 160° |
| 2026-05-03 21:37 | 52.27020 | -1.17451 | 26321 ft | 445 kts | 160° |
| 2026-05-03 21:37 | 52.24148 | -1.15524 | 27048 ft | 447 kts | 160° |
| 2026-05-03 21:37 | 52.21258 | -1.13586 | 27724 ft | 451 kts | 160° |
| 2026-05-03 21:37 | 52.18317 | -1.11760 | 28346 ft | 454 kts | 163° |
| 2026-05-03 21:38 | 52.15260 | -1.10370 | 28926 ft | 457 kts | 169° |
| 2026-05-03 21:38 | 52.12126 | -1.09364 | 28917 ft | 459 kts | 171° |
| 2026-05-03 21:38 | 52.05874 | -1.07437 | 28916 ft | 457 kts | 171° |
| 2026-05-03 21:39 | 51.99641 | -1.05421 | 28924 ft | 457 kts | 171° |
| 2026-05-03 21:39 | 51.93392 | -1.03349 | 28932 ft | 458 kts | 170° |
| 2026-05-03 21:40 | 51.87190 | -1.01289 | 28927 ft | 458 kts | 170° |
| 2026-05-03 21:40 | 51.80801 | -0.99206 | 28927 ft | 481 kts | 171° |
| 2026-05-03 21:41 | 51.74154 | -0.97086 | 28916 ft | 489 kts | 171° |
| 2026-05-03 21:41 | 51.67527 | -0.94966 | 28903 ft | 483 kts | 171° |
| 2026-05-03 21:42 | 51.61106 | -0.91988 | 28906 ft | 489 kts | 153° |
| 2026-05-03 21:42 | 51.58352 | -0.88699 | 28928 ft | 499 kts | 140° |
| 2026-05-03 21:42 | 51.56061 | -0.84471 | 28926 ft | 506 kts | 128° |
| 2026-05-03 21:43 | 51.54440 | -0.79436 | 28929 ft | 508 kts | 115° |
| 2026-05-03 21:43 | 51.53145 | -0.74134 | 28937 ft | 510 kts | 115° |